首页
METAR-TAF:

METAR-TAF

机场 :

于克塞科瓦, 土耳其

纬度: 37-33-06N, 经度: 44-14-01E, 海拔: 1950米

当前天气观测

该预报发布于1小时和19分钟前的07:50 UTC
风速3节,风向多变
温度 17°C
湿度 29%
气压 1029 hPa
能见度10公里或以上
1500米以下无云,无积雨云

METAR: LTCW 170750Z VRB03KT CAVOK 17/M01 Q1029

时间: 12:09 (09:09 UTC)

预报

该预报发布于1小时和29分钟前的07:40 UTC
预报有效从17日的 09点(UTC)到 17日的 18点(UTC)
风速2节,风向多变
能见度10公里或以上
散云层高于3500英尺
散云层高于7000英尺
成为
从 17日的 09点(UTC)到 17日的 11点(UTC)
风速12节,风向南转西南

TAF: LTCW 170740Z 1709/1718 VRB02KT 9999 SCT035 SCT070 BECMG 1709/1711 21012KT

超过4000个机场的气象观测和天气预报(METAR&TAF报告)。

可查询的气象台以黄色和红色小点在地图上表示。

将鼠标移到小点上方,可查看气象台名称。

然后点击查看天气观测和预报。

如需切换地图:点击带黑十字的绿色按钮放大地图;点击带横线的绿色按钮缩小地图;或者点击绿色箭头查看邻近地区的地图。


METAR-TAF: